Friday, July 20, 2018, 8:14 PM EDT
Back to Local

KDMH, Baltimore Downtown

Location: Baltimore, MD, United States Lat: 39.283
Local Time: 8:14 PM EDT ( 0:14 GMT) Lon: -76.617
Time Zone: US/Eastern Elev: 19 ft

Show me the last for .
Show Coded

Time T Td Feel RH Dir Speed Gust Alt SLP Vis Weather Sky Remarks
2018-07-20 19:54 81 63 83 54 - - - 30.05 30.05 0 6-hr Min Temp (8pm): 81.0°F
6-hr Max Temp (8pm): 88.0°F
2018-07-20 18:54 84 57 - 39 - - - 30.04 30.04 0 None
2018-07-20 17:54 84 58 84 41 - - - 30.05 30.04 0 None
2018-07-20 16:54 84 57 - 39 - - - 30.06 30.06 0 None
2018-07-20 15:54 87 57 - 36 - - - 30.07 30.07 0 None
2018-07-20 14:54 87 56 - 34 - - - 30.10 30.09 0 None
2018-07-20 13:54 84 53 - 34 - - - 30.12 30.11 0 6-hr Min Temp (2pm): 77.0°F
6-hr Max Temp (2pm): 88.0°F
2018-07-20 12:54 85 57 - 38 - - - 30.12 30.12 0 None
2018-07-20 11:54 85 62 86 46 - - - 30.13 30.13 0 None
2018-07-20 10:54 83 66 86 56 - - - 30.13 30.13 0 None
2018-07-20 09:54 82 66 85 58 - - - 30.13 30.13 0 None
2018-07-20 08:54 79 67 82 66 - - - 30.14 30.14 0 None
2018-07-20 07:54 77 65 80 66 - - - 30.13 30.13 0 6-hr Min Temp (8am): 73.9°F
6-hr Max Temp (8am): 77.0°F
2018-07-20 06:54 76 65 79 68 - - - 30.12 30.12 0 None
2018-07-20 05:54 74 64 77 71 - - - 30.12 30.11 0 None
2018-07-20 04:54 74 64 77 71 - - - 30.11 30.11 0 None
2018-07-20 03:54 75 64 78 68 - - - 30.11 30.11 0 None
2018-07-20 02:54 76 64 79 66 - - - 30.11 30.11 0 None
2018-07-20 01:54 76 64 79 66 - - - 30.11 30.11 0 6-hr Min Temp (2am): 75.9°F
6-hr Max Temp (2am): 82.9°F
2018-07-20 00:54 76 63 79 64 - - - 30.11 30.11 0 24-hr Min Temp (1am): 72.0°F
24-hr Max Temp (1am): 89.1°F
2018-07-19 23:54 79 57 80 47 - - - 30.10 30.10 0 None
2018-07-19 22:54 80 58 81 46 - - - 30.09 30.09 0 None
2018-07-19 21:54 81 57 81 44 - - - 30.08 30.08 0 None
2018-07-19 20:54 82 57 82 42 - - - 30.07 30.06 0 None

Support USWX by starting your Amazon purchase here.